sensor_id;sensor_type;location;lat;lon;timestamp;P1;durP1;ratioP1;P2;durP2;ratioP2
4468;SDS011;2247;42.666;23.292;2024-03-29T00:02:11;3.90;;;2.00;;
4468;SDS011;2247;42.666;23.292;2024-03-29T00:04:37;9.50;;;2.00;;
4468;SDS011;2247;42.666;23.292;2024-03-29T00:07:03;7.57;;;2.50;;
4468;SDS011;2247;42.666;23.292;2024-03-29T00:09:29;11.07;;;2.60;;
4468;SDS011;2247;42.666;23.292;2024-03-29T00:11:56;6.73;;;2.30;;
4468;SDS011;2247;42.666;23.292;2024-03-29T00:14:22;8.43;;;2.20;;
4468;SDS011;2247;42.666;23.292;2024-03-29T00:16:48;4.53;;;2.37;;
4468;SDS011;2247;42.666;23.292;2024-03-29T00:19:14;4.00;;;2.40;;
4468;SDS011;2247;42.666;23.292;2024-03-29T00:21:40;6.13;;;1.90;;
4468;SDS011;2247;42.666;23.292;2024-03-29T00:24:06;6.80;;;2.00;;
4468;SDS011;2247;42.666;23.292;2024-03-29T00:26:32;5.13;;;2.13;;
4468;SDS011;2247;42.666;23.292;2024-03-29T00:28:59;4.60;;;1.50;;
4468;SDS011;2247;42.666;23.292;2024-03-29T00:31:25;4.20;;;1.67;;
4468;SDS011;2247;42.666;23.292;2024-03-29T00:33:51;4.37;;;1.43;;
4468;SDS011;2247;42.666;23.292;2024-03-29T00:36:17;2.37;;;1.70;;
4468;SDS011;2247;42.666;23.292;2024-03-29T00:38:42;3.70;;;1.60;;
4468;SDS011;2247;42.666;23.292;2024-03-29T00:41:08;7.40;;;2.30;;
4468;SDS011;2247;42.666;23.292;2024-03-29T00:43:34;5.93;;;2.97;;
4468;SDS011;2247;42.666;23.292;2024-03-29T00:46:02;11.90;;;2.43;;
4468;SDS011;2247;42.666;23.292;2024-03-29T00:48:28;7.50;;;2.40;;
4468;SDS011;2247;42.666;23.292;2024-03-29T00:50:54;12.10;;;2.67;;
4468;SDS011;2247;42.666;23.292;2024-03-29T00:53:20;6.33;;;2.27;;
4468;SDS011;2247;42.666;23.292;2024-03-29T00:55:46;17.43;;;3.10;;
4468;SDS011;2247;42.666;23.292;2024-03-29T00:58:12;5.10;;;2.30;;
4468;SDS011;2247;42.666;23.292;2024-03-29T01:00:37;6.07;;;2.60;;
4468;SDS011;2247;42.666;23.292;2024-03-29T01:03:05;8.47;;;2.90;;
4468;SDS011;2247;42.666;23.292;2024-03-29T01:05:31;6.73;;;2.47;;
4468;SDS011;2247;42.666;23.292;2024-03-29T01:07:57;4.23;;;2.10;;
4468;SDS011;2247;42.666;23.292;2024-03-29T01:10:23;5.80;;;2.27;;
4468;SDS011;2247;42.666;23.292;2024-03-29T01:12:49;5.70;;;2.60;;
4468;SDS011;2247;42.666;23.292;2024-03-29T01:15:15;9.63;;;2.20;;
4468;SDS011;2247;42.666;23.292;2024-03-29T01:17:41;3.40;;;2.20;;
4468;SDS011;2247;42.666;23.292;2024-03-29T01:20:08;4.80;;;1.83;;
4468;SDS011;2247;42.666;23.292;2024-03-29T01:22:35;5.27;;;1.90;;
4468;SDS011;2247;42.666;23.292;2024-03-29T01:25:01;6.33;;;2.27;;
4468;SDS011;2247;42.666;23.292;2024-03-29T01:27:27;3.97;;;1.90;;
4468;SDS011;2247;42.666;23.292;2024-03-29T01:29:52;5.70;;;2.20;;
4468;SDS011;2247;42.666;23.292;2024-03-29T01:32:18;6.70;;;1.70;;
4468;SDS011;2247;42.666;23.292;2024-03-29T01:34:44;4.57;;;1.90;;
4468;SDS011;2247;42.666;23.292;2024-03-29T01:37:11;6.70;;;1.60;;
4468;SDS011;2247;42.666;23.292;2024-03-29T01:39:37;6.60;;;1.80;;
4468;SDS011;2247;42.666;23.292;2024-03-29T01:42:03;2.53;;;1.40;;
4468;SDS011;2247;42.666;23.292;2024-03-29T01:44:29;4.80;;;2.20;;
4468;SDS011;2247;42.666;23.292;2024-03-29T01:46:56;7.90;;;1.87;;
4468;SDS011;2247;42.666;23.292;2024-03-29T01:49:23;8.63;;;1.87;;
4468;SDS011;2247;42.666;23.292;2024-03-29T01:51:51;7.40;;;2.10;;
4468;SDS011;2247;42.666;23.292;2024-03-29T01:54:20;2.97;;;1.60;;
4468;SDS011;2247;42.666;23.292;2024-03-29T01:56:47;3.50;;;1.60;;
4468;SDS011;2247;42.666;23.292;2024-03-29T01:59:15;3.37;;;1.70;;
4468;SDS011;2247;42.666;23.292;2024-03-29T02:01:45;3.37;;;1.63;;
4468;SDS011;2247;42.666;23.292;2024-03-29T02:04:13;3.50;;;1.67;;
4468;SDS011;2247;42.666;23.292;2024-03-29T02:06:41;3.17;;;1.53;;
4468;SDS011;2247;42.666;23.292;2024-03-29T02:09:08;2.93;;;1.50;;
4468;SDS011;2247;42.666;23.292;2024-03-29T02:11:37;2.90;;;1.90;;
4468;SDS011;2247;42.666;23.292;2024-03-29T02:14:04;6.60;;;1.97;;
4468;SDS011;2247;42.666;23.292;2024-03-29T02:16:32;2.57;;;1.63;;
4468;SDS011;2247;42.666;23.292;2024-03-29T02:18:58;5.70;;;1.80;;
4468;SDS011;2247;42.666;23.292;2024-03-29T02:21:25;4.30;;;1.87;;
4468;SDS011;2247;42.666;23.292;2024-03-29T02:24:03;8.73;;;1.90;;
4468;SDS011;2247;42.666;23.292;2024-03-29T02:26:32;6.17;;;2.07;;
4468;SDS011;2247;42.666;23.292;2024-03-29T02:29:01;5.03;;;2.20;;
4468;SDS011;2247;42.666;23.292;2024-03-29T02:31:28;5.70;;;2.07;;
4468;SDS011;2247;42.666;23.292;2024-03-29T02:33:55;3.93;;;1.67;;
4468;SDS011;2247;42.666;23.292;2024-03-29T02:36:22;4.07;;;1.60;;
4468;SDS011;2247;42.666;23.292;2024-03-29T02:38:49;2.20;;;1.63;;
4468;SDS011;2247;42.666;23.292;2024-03-29T02:41:18;5.83;;;1.60;;
4468;SDS011;2247;42.666;23.292;2024-03-29T02:43:45;3.67;;;1.80;;
4468;SDS011;2247;42.666;23.292;2024-03-29T02:46:12;6.33;;;1.70;;
4468;SDS011;2247;42.666;23.292;2024-03-29T02:48:39;1.70;;;1.30;;
4468;SDS011;2247;42.666;23.292;2024-03-29T02:51:05;2.80;;;1.70;;
4468;SDS011;2247;42.666;23.292;2024-03-29T02:53:32;4.37;;;1.63;;
4468;SDS011;2247;42.666;23.292;2024-03-29T02:55:58;4.43;;;1.33;;
4468;SDS011;2247;42.666;23.292;2024-03-29T02:58:26;3.90;;;1.70;;
4468;SDS011;2247;42.666;23.292;2024-03-29T03:00:53;2.00;;;1.63;;
4468;SDS011;2247;42.666;23.292;2024-03-29T03:03:19;4.23;;;1.80;;
4468;SDS011;2247;42.666;23.292;2024-03-29T03:05:46;5.00;;;1.73;;
4468;SDS011;2247;42.666;23.292;2024-03-29T03:08:12;3.90;;;1.57;;
4468;SDS011;2247;42.666;23.292;2024-03-29T03:11:01;4.23;;;1.57;;
4468;SDS011;2247;42.666;23.292;2024-03-29T03:13:32;3.80;;;1.30;;
4468;SDS011;2247;42.666;23.292;2024-03-29T03:15:59;5.03;;;1.90;;
4468;SDS011;2247;42.666;23.292;2024-03-29T03:18:25;6.97;;;1.70;;
4468;SDS011;2247;42.666;23.292;2024-03-29T03:20:52;3.57;;;1.93;;
4468;SDS011;2247;42.666;23.292;2024-03-29T03:23:18;3.77;;;1.57;;
4468;SDS011;2247;42.666;23.292;2024-03-29T03:25:46;5.10;;;1.63;;
4468;SDS011;2247;42.666;23.292;2024-03-29T03:28:19;5.90;;;1.80;;
4468;SDS011;2247;42.666;23.292;2024-03-29T03:30:48;7.00;;;1.90;;
4468;SDS011;2247;42.666;23.292;2024-03-29T03:33:14;2.40;;;1.50;;
4468;SDS011;2247;42.666;23.292;2024-03-29T03:35:41;3.47;;;1.63;;
4468;SDS011;2247;42.666;23.292;2024-03-29T03:38:07;2.63;;;1.50;;
4468;SDS011;2247;42.666;23.292;2024-03-29T03:40:34;8.63;;;1.80;;
4468;SDS011;2247;42.666;23.292;2024-03-29T03:43:00;9.53;;;2.07;;
4468;SDS011;2247;42.666;23.292;2024-03-29T03:45:27;3.70;;;1.50;;
4468;SDS011;2247;42.666;23.292;2024-03-29T03:47:55;13.87;;;2.00;;
4468;SDS011;2247;42.666;23.292;2024-03-29T03:50:22;3.50;;;2.03;;
4468;SDS011;2247;42.666;23.292;2024-03-29T03:52:48;3.50;;;1.70;;
4468;SDS011;2247;42.666;23.292;2024-03-29T03:55:15;6.50;;;1.80;;
4468;SDS011;2247;42.666;23.292;2024-03-29T03:57:41;1.90;;;1.43;;
4468;SDS011;2247;42.666;23.292;2024-03-29T04:00:08;3.40;;;1.47;;
4468;SDS011;2247;42.666;23.292;2024-03-29T04:02:35;4.70;;;1.80;;
4468;SDS011;2247;42.666;23.292;2024-03-29T04:05:04;2.93;;;1.50;;
4468;SDS011;2247;42.666;23.292;2024-03-29T04:07:30;3.80;;;2.00;;
4468;SDS011;2247;42.666;23.292;2024-03-29T04:09:57;3.60;;;2.07;;
4468;SDS011;2247;42.666;23.292;2024-03-29T04:12:23;3.50;;;2.30;;
4468;SDS011;2247;42.666;23.292;2024-03-29T04:14:50;4.67;;;2.10;;
4468;SDS011;2247;42.666;23.292;2024-03-29T04:17:15;5.13;;;2.30;;
4468;SDS011;2247;42.666;23.292;2024-03-29T04:19:42;12.90;;;3.83;;
4468;SDS011;2247;42.666;23.292;2024-03-29T04:22:10;13.03;;;3.70;;
4468;SDS011;2247;42.666;23.292;2024-03-29T04:24:36;5.90;;;2.70;;
4468;SDS011;2247;42.666;23.292;2024-03-29T04:27:02;8.63;;;3.17;;
4468;SDS011;2247;42.666;23.292;2024-03-29T04:29:30;5.10;;;2.53;;
4468;SDS011;2247;42.666;23.292;2024-03-29T04:31:56;5.00;;;2.30;;
4468;SDS011;2247;42.666;23.292;2024-03-29T04:34:23;5.03;;;2.50;;
4468;SDS011;2247;42.666;23.292;2024-03-29T04:36:48;6.00;;;2.50;;
4468;SDS011;2247;42.666;23.292;2024-03-29T04:39:17;4.37;;;2.50;;
4468;SDS011;2247;42.666;23.292;2024-03-29T04:41:44;7.10;;;2.60;;
4468;SDS011;2247;42.666;23.292;2024-03-29T04:44:11;6.33;;;2.00;;
4468;SDS011;2247;42.666;23.292;2024-03-29T04:46:40;7.23;;;2.63;;
4468;SDS011;2247;42.666;23.292;2024-03-29T04:49:06;4.87;;;2.40;;
4468;SDS011;2247;42.666;23.292;2024-03-29T04:51:33;7.27;;;2.50;;
4468;SDS011;2247;42.666;23.292;2024-03-29T04:54:00;17.87;;;2.83;;
4468;SDS011;2247;42.666;23.292;2024-03-29T04:56:29;7.70;;;2.60;;
4468;SDS011;2247;42.666;23.292;2024-03-29T04:58:57;6.67;;;2.73;;
4468;SDS011;2247;42.666;23.292;2024-03-29T05:01:24;5.00;;;2.27;;
4468;SDS011;2247;42.666;23.292;2024-03-29T05:03:51;6.40;;;2.33;;
4468;SDS011;2247;42.666;23.292;2024-03-29T05:06:18;6.47;;;2.03;;
4468;SDS011;2247;42.666;23.292;2024-03-29T05:08:45;3.70;;;1.60;;
4468;SDS011;2247;42.666;23.292;2024-03-29T05:11:12;4.93;;;2.00;;
4468;SDS011;2247;42.666;23.292;2024-03-29T05:13:41;5.90;;;2.23;;
4468;SDS011;2247;42.666;23.292;2024-03-29T05:16:08;8.83;;;3.20;;
4468;SDS011;2247;42.666;23.292;2024-03-29T05:18:35;9.60;;;5.00;;
4468;SDS011;2247;42.666;23.292;2024-03-29T05:21:02;8.10;;;2.70;;
4468;SDS011;2247;42.666;23.292;2024-03-29T05:23:29;11.33;;;2.77;;
4468;SDS011;2247;42.666;23.292;2024-03-29T05:25:56;6.10;;;2.77;;
4468;SDS011;2247;42.666;23.292;2024-03-29T05:28:23;7.37;;;3.03;;
4468;SDS011;2247;42.666;23.292;2024-03-29T05:30:53;14.97;;;3.10;;
4468;SDS011;2247;42.666;23.292;2024-03-29T05:33:20;14.80;;;3.10;;
4468;SDS011;2247;42.666;23.292;2024-03-29T05:35:47;34.00;;;6.33;;
4468;SDS011;2247;42.666;23.292;2024-03-29T05:38:14;19.03;;;5.10;;
4468;SDS011;2247;42.666;23.292;2024-03-29T05:40:41;17.00;;;4.30;;
4468;SDS011;2247;42.666;23.292;2024-03-29T05:43:08;18.53;;;3.90;;
4468;SDS011;2247;42.666;23.292;2024-03-29T05:45:35;20.27;;;4.23;;
4468;SDS011;2247;42.666;23.292;2024-03-29T05:48:03;19.53;;;3.90;;
4468;SDS011;2247;42.666;23.292;2024-03-29T05:50:31;11.93;;;2.80;;
4468;SDS011;2247;42.666;23.292;2024-03-29T05:52:59;12.60;;;4.37;;
4468;SDS011;2247;42.666;23.292;2024-03-29T05:55:26;15.27;;;3.33;;
4468;SDS011;2247;42.666;23.292;2024-03-29T05:57:53;13.20;;;3.33;;
4468;SDS011;2247;42.666;23.292;2024-03-29T06:00:20;16.07;;;3.30;;
4468;SDS011;2247;42.666;23.292;2024-03-29T06:02:47;10.03;;;2.67;;
4468;SDS011;2247;42.666;23.292;2024-03-29T06:05:15;12.03;;;2.73;;
4468;SDS011;2247;42.666;23.292;2024-03-29T06:07:42;7.60;;;2.67;;
4468;SDS011;2247;42.666;23.292;2024-03-29T06:10:09;8.80;;;2.43;;
4468;SDS011;2247;42.666;23.292;2024-03-29T06:12:36;14.70;;;2.93;;
4468;SDS011;2247;42.666;23.292;2024-03-29T06:15:04;5.57;;;2.20;;
4468;SDS011;2247;42.666;23.292;2024-03-29T06:17:49;5.57;;;1.60;;
4468;SDS011;2247;42.666;23.292;2024-03-29T06:20:18;3.43;;;1.30;;
4468;SDS011;2247;42.666;23.292;2024-03-29T06:22:45;7.33;;;1.73;;
4468;SDS011;2247;42.666;23.292;2024-03-29T06:25:12;8.10;;;1.40;;
4468;SDS011;2247;42.666;23.292;2024-03-29T06:27:40;8.23;;;1.37;;
4468;SDS011;2247;42.666;23.292;2024-03-29T06:30:12;6.77;;;1.57;;
4468;SDS011;2247;42.666;23.292;2024-03-29T06:32:40;3.13;;;1.17;;
4468;SDS011;2247;42.666;23.292;2024-03-29T06:35:07;1.73;;;1.30;;
4468;SDS011;2247;42.666;23.292;2024-03-29T06:37:37;2.50;;;1.10;;
4468;SDS011;2247;42.666;23.292;2024-03-29T06:40:04;2.33;;;1.17;;
4468;SDS011;2247;42.666;23.292;2024-03-29T06:42:33;1.87;;;1.10;;
4468;SDS011;2247;42.666;23.292;2024-03-29T06:45:00;9.63;;;2.33;;
4468;SDS011;2247;42.666;23.292;2024-03-29T06:47:27;5.87;;;1.60;;
4468;SDS011;2247;42.666;23.292;2024-03-29T06:49:55;5.90;;;1.00;;
4468;SDS011;2247;42.666;23.292;2024-03-29T06:52:22;5.03;;;1.30;;
4468;SDS011;2247;42.666;23.292;2024-03-29T06:54:50;2.50;;;1.30;;
4468;SDS011;2247;42.666;23.292;2024-03-29T06:57:17;4.93;;;1.40;;
4468;SDS011;2247;42.666;23.292;2024-03-29T06:59:48;1.63;;;1.10;;
4468;SDS011;2247;42.666;23.292;2024-03-29T07:02:15;4.07;;;1.80;;
4468;SDS011;2247;42.666;23.292;2024-03-29T07:04:42;3.77;;;1.50;;
4468;SDS011;2247;42.666;23.292;2024-03-29T07:07:09;4.77;;;1.60;;
4468;SDS011;2247;42.666;23.292;2024-03-29T07:09:36;3.03;;;1.93;;
4468;SDS011;2247;42.666;23.292;2024-03-29T07:12:04;4.13;;;1.50;;
4468;SDS011;2247;42.666;23.292;2024-03-29T07:14:32;1.50;;;1.30;;
4468;SDS011;2247;42.666;23.292;2024-03-29T07:17:00;1.80;;;1.20;;
4468;SDS011;2247;42.666;23.292;2024-03-29T07:19:27;6.67;;;1.30;;
4468;SDS011;2247;42.666;23.292;2024-03-29T07:21:54;2.10;;;1.40;;
4468;SDS011;2247;42.666;23.292;2024-03-29T07:24:21;4.20;;;1.47;;
4468;SDS011;2247;42.666;23.292;2024-03-29T07:26:48;3.83;;;1.13;;
4468;SDS011;2247;42.666;23.292;2024-03-29T07:29:16;4.37;;;1.40;;
4468;SDS011;2247;42.666;23.292;2024-03-29T07:31:43;7.20;;;1.10;;
4468;SDS011;2247;42.666;23.292;2024-03-29T07:34:09;3.30;;;1.10;;
4468;SDS011;2247;42.666;23.292;2024-03-29T07:36:36;3.07;;;1.30;;
4468;SDS011;2247;42.666;23.292;2024-03-29T07:39:04;3.23;;;1.37;;
4468;SDS011;2247;42.666;23.292;2024-03-29T07:41:31;2.77;;;1.27;;
4468;SDS011;2247;42.666;23.292;2024-03-29T07:43:58;2.60;;;1.50;;
4468;SDS011;2247;42.666;23.292;2024-03-29T07:46:31;3.33;;;1.10;;
4468;SDS011;2247;42.666;23.292;2024-03-29T07:48:59;4.30;;;1.20;;
4468;SDS011;2247;42.666;23.292;2024-03-29T07:51:26;4.77;;;2.07;;
4468;SDS011;2247;42.666;23.292;2024-03-29T07:53:53;4.50;;;1.40;;
4468;SDS011;2247;42.666;23.292;2024-03-29T07:56:20;2.83;;;1.20;;
4468;SDS011;2247;42.666;23.292;2024-03-29T07:58:49;4.37;;;1.47;;
4468;SDS011;2247;42.666;23.292;2024-03-29T08:01:18;2.80;;;1.00;;
4468;SDS011;2247;42.666;23.292;2024-03-29T08:03:51;8.93;;;1.63;;
4468;SDS011;2247;42.666;23.292;2024-03-29T08:06:19;6.73;;;1.30;;
4468;SDS011;2247;42.666;23.292;2024-03-29T08:08:48;4.10;;;1.23;;
4468;SDS011;2247;42.666;23.292;2024-03-29T08:11:15;4.87;;;1.20;;
4468;SDS011;2247;42.666;23.292;2024-03-29T08:13:42;1.77;;;1.30;;
4468;SDS011;2247;42.666;23.292;2024-03-29T08:16:09;7.83;;;1.53;;
4468;SDS011;2247;42.666;23.292;2024-03-29T08:18:37;11.17;;;1.67;;
4468;SDS011;2247;42.666;23.292;2024-03-29T08:21:05;3.97;;;1.20;;
4468;SDS011;2247;42.666;23.292;2024-03-29T08:23:36;4.13;;;1.37;;
4468;SDS011;2247;42.666;23.292;2024-03-29T08:26:04;3.83;;;1.47;;
4468;SDS011;2247;42.666;23.292;2024-03-29T08:28:31;3.73;;;1.30;;
4468;SDS011;2247;42.666;23.292;2024-03-29T08:30:59;3.23;;;1.27;;
4468;SDS011;2247;42.666;23.292;2024-03-29T08:33:26;2.63;;;1.33;;
4468;SDS011;2247;42.666;23.292;2024-03-29T08:35:53;6.53;;;1.17;;
4468;SDS011;2247;42.666;23.292;2024-03-29T08:38:22;1.50;;;1.13;;
4468;SDS011;2247;42.666;23.292;2024-03-29T08:40:50;4.77;;;1.03;;
4468;SDS011;2247;42.666;23.292;2024-03-29T08:43:17;7.80;;;1.33;;
4468;SDS011;2247;42.666;23.292;2024-03-29T08:45:44;7.43;;;1.90;;
4468;SDS011;2247;42.666;23.292;2024-03-29T08:48:11;4.93;;;1.90;;
4468;SDS011;2247;42.666;23.292;2024-03-29T08:50:38;5.50;;;1.70;;
4468;SDS011;2247;42.666;23.292;2024-03-29T08:53:06;3.23;;;1.20;;
4468;SDS011;2247;42.666;23.292;2024-03-29T08:55:34;3.80;;;1.77;;
4468;SDS011;2247;42.666;23.292;2024-03-29T08:58:01;1.97;;;1.13;;
4468;SDS011;2247;42.666;23.292;2024-03-29T09:00:29;4.67;;;1.20;;
4468;SDS011;2247;42.666;23.292;2024-03-29T09:02:57;4.50;;;1.30;;
4468;SDS011;2247;42.666;23.292;2024-03-29T09:05:24;3.00;;;1.60;;
4468;SDS011;2247;42.666;23.292;2024-03-29T09:07:52;4.43;;;1.00;;
4468;SDS011;2247;42.666;23.292;2024-03-29T09:10:20;6.07;;;1.00;;
4468;SDS011;2247;42.666;23.292;2024-03-29T09:12:49;5.20;;;1.03;;
4468;SDS011;2247;42.666;23.292;2024-03-29T09:15:16;5.37;;;1.37;;
4468;SDS011;2247;42.666;23.292;2024-03-29T09:17:43;2.87;;;1.10;;
4468;SDS011;2247;42.666;23.292;2024-03-29T09:20:11;2.30;;;0.97;;
4468;SDS011;2247;42.666;23.292;2024-03-29T09:22:39;2.70;;;1.07;;
4468;SDS011;2247;42.666;23.292;2024-03-29T09:25:06;6.80;;;1.20;;
4468;SDS011;2247;42.666;23.292;2024-03-29T09:27:38;3.00;;;1.20;;
4468;SDS011;2247;42.666;23.292;2024-03-29T09:30:10;2.83;;;1.00;;
4468;SDS011;2247;42.666;23.292;2024-03-29T09:32:37;8.50;;;1.70;;
4468;SDS011;2247;42.666;23.292;2024-03-29T09:35:04;5.43;;;1.30;;
4468;SDS011;2247;42.666;23.292;2024-03-29T09:37:31;3.90;;;1.50;;
4468;SDS011;2247;42.666;23.292;2024-03-29T09:40:01;5.13;;;1.20;;
4468;SDS011;2247;42.666;23.292;2024-03-29T09:42:29;2.77;;;1.20;;
4468;SDS011;2247;42.666;23.292;2024-03-29T09:44:59;1.63;;;1.00;;
4468;SDS011;2247;42.666;23.292;2024-03-29T09:47:29;3.83;;;1.53;;
4468;SDS011;2247;42.666;23.292;2024-03-29T09:49:58;6.70;;;1.50;;
4468;SDS011;2247;42.666;23.292;2024-03-29T09:52:29;1.67;;;1.20;;
4468;SDS011;2247;42.666;23.292;2024-03-29T09:54:57;3.20;;;1.20;;
4468;SDS011;2247;42.666;23.292;2024-03-29T09:57:26;7.27;;;1.33;;
4468;SDS011;2247;42.666;23.292;2024-03-29T09:59:55;4.20;;;1.20;;
4468;SDS011;2247;42.666;23.292;2024-03-29T10:02:24;4.03;;;1.17;;
4468;SDS011;2247;42.666;23.292;2024-03-29T10:04:56;4.53;;;1.10;;
4468;SDS011;2247;42.666;23.292;2024-03-29T10:07:24;2.50;;;0.97;;
4468;SDS011;2247;42.666;23.292;2024-03-29T10:09:51;4.40;;;1.07;;
4468;SDS011;2247;42.666;23.292;2024-03-29T10:12:20;2.40;;;1.10;;
4468;SDS011;2247;42.666;23.292;2024-03-29T10:14:47;3.40;;;1.40;;
4468;SDS011;2247;42.666;23.292;2024-03-29T10:17:17;3.37;;;1.37;;
4468;SDS011;2247;42.666;23.292;2024-03-29T10:19:44;3.27;;;1.40;;
4468;SDS011;2247;42.666;23.292;2024-03-29T10:22:13;5.63;;;1.40;;
4468;SDS011;2247;42.666;23.292;2024-03-29T10:24:41;9.93;;;1.20;;
4468;SDS011;2247;42.666;23.292;2024-03-29T10:27:08;1.83;;;0.93;;
4468;SDS011;2247;42.666;23.292;2024-03-29T10:29:35;6.13;;;1.20;;
4468;SDS011;2247;42.666;23.292;2024-03-29T10:32:02;3.47;;;1.30;;
4468;SDS011;2247;42.666;23.292;2024-03-29T10:34:30;4.10;;;1.20;;
4468;SDS011;2247;42.666;23.292;2024-03-29T10:37:00;3.80;;;1.50;;
4468;SDS011;2247;42.666;23.292;2024-03-29T10:39:30;3.57;;;1.50;;
4468;SDS011;2247;42.666;23.292;2024-03-29T10:41:59;7.83;;;1.50;;
4468;SDS011;2247;42.666;23.292;2024-03-29T10:44:26;4.40;;;1.20;;
4468;SDS011;2247;42.666;23.292;2024-03-29T10:46:55;8.37;;;1.40;;
4468;SDS011;2247;42.666;23.292;2024-03-29T10:49:23;4.83;;;1.20;;
4468;SDS011;2247;42.666;23.292;2024-03-29T10:51:50;11.33;;;1.87;;
4468;SDS011;2247;42.666;23.292;2024-03-29T10:54:21;3.73;;;1.43;;
4468;SDS011;2247;42.666;23.292;2024-03-29T10:56:52;3.30;;;1.30;;
4468;SDS011;2247;42.666;23.292;2024-03-29T10:59:27;6.53;;;1.30;;
4468;SDS011;2247;42.666;23.292;2024-03-29T11:02:04;3.20;;;1.57;;
4468;SDS011;2247;42.666;23.292;2024-03-29T11:04:39;11.67;;;1.70;;
4468;SDS011;2247;42.666;23.292;2024-03-29T11:07:14;4.50;;;1.60;;
4468;SDS011;2247;42.666;23.292;2024-03-29T11:09:46;5.40;;;1.60;;
4468;SDS011;2247;42.666;23.292;2024-03-29T11:12:19;3.60;;;1.43;;
4468;SDS011;2247;42.666;23.292;2024-03-29T11:14:53;5.53;;;1.40;;
4468;SDS011;2247;42.666;23.292;2024-03-29T11:17:25;5.67;;;1.70;;
4468;SDS011;2247;42.666;23.292;2024-03-29T11:19:52;6.47;;;1.60;;
4468;SDS011;2247;42.666;23.292;2024-03-29T11:22:19;7.50;;;1.50;;
4468;SDS011;2247;42.666;23.292;2024-03-29T11:24:50;4.20;;;1.40;;
4468;SDS011;2247;42.666;23.292;2024-03-29T11:27:17;7.40;;;1.80;;
4468;SDS011;2247;42.666;23.292;2024-03-29T11:29:48;5.90;;;1.87;;
4468;SDS011;2247;42.666;23.292;2024-03-29T11:35:02;6.50;;;1.83;;
4468;SDS011;2247;42.666;23.292;2024-03-29T11:37:30;4.30;;;1.67;;
4468;SDS011;2247;42.666;23.292;2024-03-29T11:39:58;6.43;;;1.53;;
4468;SDS011;2247;42.666;23.292;2024-03-29T11:42:37;2.77;;;1.10;;
4468;SDS011;2247;42.666;23.292;2024-03-29T11:45:09;3.93;;;1.13;;
4468;SDS011;2247;42.666;23.292;2024-03-29T11:47:38;4.87;;;1.40;;
4468;SDS011;2247;42.666;23.292;2024-03-29T11:50:07;4.50;;;1.30;;
4468;SDS011;2247;42.666;23.292;2024-03-29T11:52:34;3.93;;;1.40;;
4468;SDS011;2247;42.666;23.292;2024-03-29T11:55:03;6.60;;;1.80;;
4468;SDS011;2247;42.666;23.292;2024-03-29T11:57:32;2.30;;;1.47;;
4468;SDS011;2247;42.666;23.292;2024-03-29T12:00:01;7.43;;;1.50;;
4468;SDS011;2247;42.666;23.292;2024-03-29T12:02:29;4.57;;;1.50;;
4468;SDS011;2247;42.666;23.292;2024-03-29T12:04:56;4.30;;;1.40;;
4468;SDS011;2247;42.666;23.292;2024-03-29T12:07:23;3.03;;;1.43;;
4468;SDS011;2247;42.666;23.292;2024-03-29T12:09:50;6.20;;;1.27;;
4468;SDS011;2247;42.666;23.292;2024-03-29T12:12:18;4.30;;;1.30;;
4468;SDS011;2247;42.666;23.292;2024-03-29T12:14:45;5.23;;;1.57;;
4468;SDS011;2247;42.666;23.292;2024-03-29T12:17:14;4.90;;;1.47;;
4468;SDS011;2247;42.666;23.292;2024-03-29T12:19:42;7.43;;;1.67;;
4468;SDS011;2247;42.666;23.292;2024-03-29T12:22:10;2.40;;;1.00;;
4468;SDS011;2247;42.666;23.292;2024-03-29T12:24:37;3.63;;;1.23;;
4468;SDS011;2247;42.666;23.292;2024-03-29T12:27:05;3.70;;;1.60;;
4468;SDS011;2247;42.666;23.292;2024-03-29T12:29:32;4.10;;;1.20;;
4468;SDS011;2247;42.666;23.292;2024-03-29T12:32:00;8.03;;;1.20;;
4468;SDS011;2247;42.666;23.292;2024-03-29T12:34:31;6.53;;;1.70;;
4468;SDS011;2247;42.666;23.292;2024-03-29T12:36:59;3.50;;;1.20;;
4468;SDS011;2247;42.666;23.292;2024-03-29T12:39:29;5.20;;;1.60;;
4468;SDS011;2247;42.666;23.292;2024-03-29T12:41:58;4.57;;;1.30;;
4468;SDS011;2247;42.666;23.292;2024-03-29T12:44:26;2.60;;;1.27;;
4468;SDS011;2247;42.666;23.292;2024-03-29T12:46:53;1.43;;;0.97;;
4468;SDS011;2247;42.666;23.292;2024-03-29T12:49:20;4.53;;;1.10;;
4468;SDS011;2247;42.666;23.292;2024-03-29T12:51:55;3.53;;;1.50;;
4468;SDS011;2247;42.666;23.292;2024-03-29T12:54:22;5.30;;;1.40;;
4468;SDS011;2247;42.666;23.292;2024-03-29T12:56:50;1.70;;;1.13;;
4468;SDS011;2247;42.666;23.292;2024-03-29T12:59:17;4.60;;;1.30;;
4468;SDS011;2247;42.666;23.292;2024-03-29T13:01:44;5.37;;;1.63;;
4468;SDS011;2247;42.666;23.292;2024-03-29T13:04:11;7.00;;;1.40;;
4468;SDS011;2247;42.666;23.292;2024-03-29T13:06:38;4.30;;;1.40;;
4468;SDS011;2247;42.666;23.292;2024-03-29T13:09:06;4.67;;;1.10;;
4468;SDS011;2247;42.666;23.292;2024-03-29T13:11:34;8.73;;;1.47;;
4468;SDS011;2247;42.666;23.292;2024-03-29T13:14:01;1.80;;;1.10;;
4468;SDS011;2247;42.666;23.292;2024-03-29T13:16:28;11.30;;;1.67;;
4468;SDS011;2247;42.666;23.292;2024-03-29T13:18:55;4.40;;;1.10;;
4468;SDS011;2247;42.666;23.292;2024-03-29T13:21:22;1.80;;;0.90;;
4468;SDS011;2247;42.666;23.292;2024-03-29T13:23:49;4.47;;;1.00;;
4468;SDS011;2247;42.666;23.292;2024-03-29T13:26:17;1.13;;;0.80;;
4468;SDS011;2247;42.666;23.292;2024-03-29T13:28:44;1.70;;;1.13;;
4468;SDS011;2247;42.666;23.292;2024-03-29T13:31:11;5.60;;;1.70;;
4468;SDS011;2247;42.666;23.292;2024-03-29T13:33:38;4.30;;;1.27;;
4468;SDS011;2247;42.666;23.292;2024-03-29T13:36:05;4.67;;;1.13;;
4468;SDS011;2247;42.666;23.292;2024-03-29T13:38:33;3.30;;;1.10;;
4468;SDS011;2247;42.666;23.292;2024-03-29T13:40:59;3.93;;;2.00;;
4468;SDS011;2247;42.666;23.292;2024-03-29T13:43:30;4.93;;;1.80;;
4468;SDS011;2247;42.666;23.292;2024-03-29T13:45:58;4.73;;;1.30;;
4468;SDS011;2247;42.666;23.292;2024-03-29T13:48:25;3.80;;;1.20;;
4468;SDS011;2247;42.666;23.292;2024-03-29T13:50:52;3.73;;;1.27;;
4468;SDS011;2247;42.666;23.292;2024-03-29T13:53:19;2.80;;;1.30;;
4468;SDS011;2247;42.666;23.292;2024-03-29T13:55:46;4.73;;;1.70;;
4468;SDS011;2247;42.666;23.292;2024-03-29T13:58:13;5.57;;;1.20;;
4468;SDS011;2247;42.666;23.292;2024-03-29T14:00:42;2.03;;;1.20;;
4468;SDS011;2247;42.666;23.292;2024-03-29T14:03:09;5.00;;;1.40;;
4468;SDS011;2247;42.666;23.292;2024-03-29T14:05:36;2.93;;;0.97;;
4468;SDS011;2247;42.666;23.292;2024-03-29T14:08:04;1.60;;;1.10;;
4468;SDS011;2247;42.666;23.292;2024-03-29T14:10:31;1.60;;;1.13;;
4468;SDS011;2247;42.666;23.292;2024-03-29T14:13:01;6.37;;;1.13;;
4468;SDS011;2247;42.666;23.292;2024-03-29T14:15:29;2.87;;;1.40;;
4468;SDS011;2247;42.666;23.292;2024-03-29T14:17:57;1.47;;;1.10;;
4468;SDS011;2247;42.666;23.292;2024-03-29T14:20:24;4.60;;;1.10;;
4468;SDS011;2247;42.666;23.292;2024-03-29T14:22:51;2.67;;;1.23;;
4468;SDS011;2247;42.666;23.292;2024-03-29T14:25:21;1.77;;;0.97;;
4468;SDS011;2247;42.666;23.292;2024-03-29T14:27:48;7.03;;;1.03;;
4468;SDS011;2247;42.666;23.292;2024-03-29T14:30:19;4.27;;;1.07;;
4468;SDS011;2247;42.666;23.292;2024-03-29T14:32:47;1.10;;;1.00;;
4468;SDS011;2247;42.666;23.292;2024-03-29T14:35:18;7.87;;;1.43;;
4468;SDS011;2247;42.666;23.292;2024-03-29T14:37:45;1.60;;;1.00;;
4468;SDS011;2247;42.666;23.292;2024-03-29T14:40:12;5.73;;;1.43;;
4468;SDS011;2247;42.666;23.292;2024-03-29T14:42:40;11.00;;;1.10;;
4468;SDS011;2247;42.666;23.292;2024-03-29T14:45:08;5.03;;;1.10;;
4468;SDS011;2247;42.666;23.292;2024-03-29T14:47:36;3.43;;;1.20;;
4468;SDS011;2247;42.666;23.292;2024-03-29T14:50:04;2.93;;;1.10;;
4468;SDS011;2247;42.666;23.292;2024-03-29T14:52:34;5.57;;;1.20;;
4468;SDS011;2247;42.666;23.292;2024-03-29T14:55:01;4.20;;;1.10;;
4468;SDS011;2247;42.666;23.292;2024-03-29T14:57:29;7.40;;;1.30;;
4468;SDS011;2247;42.666;23.292;2024-03-29T14:59:56;2.37;;;1.23;;
4468;SDS011;2247;42.666;23.292;2024-03-29T15:02:23;3.83;;;1.40;;
4468;SDS011;2247;42.666;23.292;2024-03-29T15:04:50;3.67;;;1.20;;
4468;SDS011;2247;42.666;23.292;2024-03-29T15:07:17;9.77;;;1.50;;